Terminal Aerodrome Forecast
Issued by NWS Charleston, SC

Home | Current Version | Previous Version | Text Only | Print | Product List | Glossary On
Versions: 1 2 3 4 5 6 7 8 9 10 11 12 13 14 15 16
000
FTUS42 KCHS 221120
TAFSAV
TAF
KSAV 221120Z 2212/2312 VRB02KT P6SM SCT015 BKN200
     FM221700 19006KT P6SM VCTS SCT030CB BKN080
      TEMPO 2218/2222 4SM TSRA BR SCT015 BKN030CB
     FM222200 18004KT P6SM SCT040 BKN150=

USA.gov is the U.S. government's official web portal to all federal, state and local government web resources and services.